Nearby METAR Reports

 

KCFV - Coffeyville, Kansas, USA
Distance from station: ENE 93mi, 150km
Updated: Fri, 03-22-2019 10:52pm CDT
Clear
Clear
 Wind from ESE
Wind: ESE 3 mph , 6 km/h
Temperature: 54°F , 12°C
Dew Point: 32°F , 0°C
Humidity: 44%
Barometer: 1018.6 hPa
Clouds: Clear
Visibility: 10 miles , 16 km
2019/03/23 03:52 KCFV 230352Z AUTO 11003KT 10SM CLR 12/00 A3008 RMK AO2 SLP186 T01170000
KIDP - Independence, Kansas, USA
Distance from station: NE 86mi, 138km
Updated: Fri, 03-22-2019 11:15pm CDT
Partly cloudy
Partly cloudy
 Wind from S
Wind: S 3 mph , 6 km/h
Temperature: 52°F , 11°C
Dew Point: 34°F , 1°C
Humidity: 50%
Barometer: 1019.3 hPa
Clouds: Partly cloudy
Visibility: 10 miles , 16 km
Cloud details: Partly cloudy 12000 ft
2019/03/23 04:15 KIDP 230415Z AUTO 19003KT 10SM SCT120 11/01 A3010 RMK AO2 T01100013
KIAB - Mcconnell Afb, Kansas, USA
Distance from station: N 84mi, 135km
Updated: Fri, 03-22-2019 10:56pm CDT
Mostly cloudy
Mostly cloudy
 Wind from E
Wind: E 9 mph , 15 km/h
Temperature: 57°F , 14°C
Dew Point: 30°F , -1°C
Humidity: 36%
Barometer: 1017.6 hPa
Clouds: Mostly cloudy
Visibility: 10 miles , 16 km
Cloud details: Partly cloudy 9500 ft
Mostly cloudy 12000 ft
2019/03/23 03:56 KIAB 230356Z AUTO 09008KT 10SM SCT095 BKN120 14/M01 A3005 RMK AO2 SLP176 T01411015 $
 
KICT - Wichita, Kansas, USA
Distance from station: NNW 88mi, 142km
Updated: Fri, 03-22-2019 10:53pm CDT
Overcast
Overcast
 Wind from SE
Wind: SE 12 mph , 19 km/h
Temperature: 59°F , 15°C
Dew Point: 28°F , -2°C
Humidity: 31%
Barometer: 1017.3 hPa
Clouds: Overcast
Visibility: 9 miles , 14 km
Cloud details: Partly cloudy 10000 ft
Overcast 15000 ft
2019/03/23 03:53 KICT 230353Z 13010KT 9SM SCT100 OVC150 15/M02 A3004 RMK AO2 SLP170 T01501017 $
KAAO - Wichita/Jabara, Kansas, USA
Distance from station: N 93mi, 149km
Updated: Fri, 03-22-2019 10:54pm CDT
Partly cloudy
Partly cloudy
 Wind from SE
Wind: SE 9 mph , 15 km/h
Temperature: 55°F , 13°C
Dew Point: 30°F , -1°C
Humidity: 38%
Barometer: 1017.9 hPa
Clouds: Partly cloudy
Visibility: 10 miles , 16 km
Cloud details: Few Clouds 10000 ft
Partly cloudy 12000 ft
2019/03/23 03:54 KAAO 230354Z AUTO 13008KT 10SM FEW100 SCT120 13/M01 A3006 RMK AO2 SLP176 T01281011
KWLD - Winfield/Arkansa, Kansas, USA
Distance from station: N 52mi, 84km
Updated: Fri, 03-22-2019 10:54pm CDT
Overcast
Overcast
 Wind from ESE
Wind: ESE 12 mph , 19 km/h
Temperature: 59°F , 15°C
Dew Point: 28°F , -2°C
Humidity: 31%
Barometer: 1017.9 hPa
Clouds: Overcast
Visibility: 10 miles , 16 km
Cloud details: Mostly cloudy 10000 ft
Overcast 12000 ft
2019/03/23 03:54 KWLD 230354Z AUTO 11010KT 10SM BKN100 OVC120 15/M02 A3006 RMK AO2 SLP176 T01501022
 
KAVK - Alva, Oklahoma, USA
Distance from station: WNW 94mi, 152km
Updated: Fri, 03-22-2019 11:15pm CDT
Nearby thunderstorm, Rain, Mostly cloudy
Nearby thunderstorm, Rain, Mostly cloudy
 Wind from WSW
Wind: WSW 25 mph , 41 km/h, Gust: 43 mph , 69 km/h
Temperature: 57°F , 14°C
Dew Point: 41°F , 5°C
Humidity: 55%
Barometer: 1017.9 hPa
Summary: Nearby thunderstorm, Rain
Clouds: Mostly cloudy
Visibility: 8 miles , 13 km
Cloud details: Few Clouds 3100 ft
Partly cloudy 5500 ft
Mostly cloudy 6500 ft
2019/03/23 04:15 KAVK 230415Z AUTO 24022G37KT 220V290 8SM VCTS RA FEW031 SCT055 BKN065 14/05 A3006 RMK AO2 LTG DSNT S-W
KBVO - Bartlesville, Oklahoma, USA
Distance from station: ENE 61mi, 98km
Updated: Fri, 03-22-2019 10:53pm CDT
Clear
Clear
 Wind from calm
Wind: Calm
Temperature: 45°F , 7°C
Dew Point: 36°F , 2°C
Humidity: 71%
Barometer: 1019.6 hPa
Clouds: Clear
Visibility: 10 miles , 16 km
2019/03/23 03:53 KBVO 230353Z AUTO 00000KT 10SM CLR 07/02 A3011 RMK AO2 SLP191 T00670017
KBKN - Blackwell, Oklahoma, USA
Distance from station: NW 29mi, 47km
Updated: Fri, 03-22-2019 11:15pm CDT

 Wind from ESE
Wind: ESE 13 mph , 20 km/h, Gust: 18 mph , 30 km/h
Temperature: 59°F , 15°C
Dew Point: 32°F , 0°C
Humidity: 36%
Barometer: 1017.6 hPa
Visibility: 10 miles , 16 km
2019/03/23 04:15 KBKN 230415Z AUTO 11011G16KT 10SM 15/00 A3005 RMK AO2
 
KGCM - Claremore, Oklahoma, USA
Distance from station: E 86mi, 138km
Updated: Fri, 03-22-2019 11:15pm CDT
Clear
Clear
 Wind from SE
Wind: SE 6 mph , 9 km/h
Temperature: 52°F , 11°C
Dew Point: 34°F , 1°C
Humidity: 50%
Barometer: 1019.6 hPa
Clouds: Clear
Visibility: 10 miles , 16 km
2019/03/23 04:15 KGCM 230415Z AUTO 13005KT 10SM CLR 11/01 A3011 RMK AO2 TSNO
KCQB - Chandler, Oklahoma, USA
Distance from station: SSE 50mi, 80km
Updated: Fri, 03-22-2019 11:15pm CDT
Mostly cloudy
Mostly cloudy
 Wind from ESE
Wind: ESE 7 mph , 11 km/h
Temperature: 57°F , 14°C
Dew Point: 32°F , 0°C
Humidity: 39%
Barometer: 1017.6 hPa
Clouds: Mostly cloudy
Visibility: 10 miles , 16 km
Cloud details: Mostly cloudy 11000 ft
2019/03/23 04:15 KCQB 230415Z AUTO 12006KT 10SM BKN110 14/00 A3005 RMK AO2 T01411002
KCUH - Cushing, Oklahoma, USA
Distance from station: SSE 35mi, 57km
Updated: Fri, 03-22-2019 11:15pm CDT
Mostly cloudy
Mostly cloudy
 Wind from ESE
Wind: ESE 6 mph , 9 km/h
Temperature: 59°F , 15°C
Dew Point: 32°F , 0°C
Humidity: 36%
Barometer: 1017.6 hPa
Clouds: Mostly cloudy
Visibility: 10 miles , 16 km
Cloud details: Mostly cloudy 12000 ft
2019/03/23 04:15 KCUH 230415Z AUTO 12005KT 10SM BKN120 15/00 A3005 RMK AO2 T01481004
 
KRQO - El Reno Muni, Oklahoma, USA
Distance from station: SW 85mi, 137km
Updated: Fri, 03-22-2019 11:15pm CDT
Overcast
Overcast
 Wind from SE
Wind: SE 18 mph , 30 km/h
Temperature: 61°F , 16°C
Dew Point: 39°F , 4°C
Humidity: 45%
Barometer: 1016.3 hPa
Clouds: Overcast
Cloud details: Partly cloudy 7000 ft
Overcast 8000 ft
2019/03/23 04:15 KRQO 230415Z AUTO 14016KT SCT070 OVC080 16/04 A3001 RMK AO2 PWINO T01560041
KEND - Enid/Vance Afb, Oklahoma, USA
Distance from station: W 50mi, 81km
Updated: Fri, 03-22-2019 9:56pm CDT
NOT Current
Overcast
Overcast
 Wind from E
Wind: E 14 mph , 22 km/h
Temperature: 61°F , 16°C
Dew Point: 37°F , 3°C
Humidity: 42%
Barometer: 1016.3 hPa
Clouds: Overcast
Visibility: 10 miles , 16 km
Cloud details: Overcast 8000 ft
2019/03/23 02:56 KEND 230256Z AUTO 10012KT 10SM OVC080 16/03 A3001 RMK AO2 SLP161 T01570028 53004 $
KWDG - Enid/Woodring, Oklahoma, USA
Distance from station: W 42mi, 67km
Updated: Fri, 03-22-2019 11:15pm CDT
Partly cloudy
Partly cloudy
 Wind from ESE
Wind: ESE 16 mph , 26 km/h
Temperature: 59°F , 15°C
Dew Point: 36°F , 2°C
Humidity: 42%
Barometer: 1015.6 hPa
Clouds: Partly cloudy
Visibility: 10 miles , 16 km
Cloud details: Partly cloudy 12000 ft
2019/03/23 04:15 KWDG 230415Z AUTO 12014KT 10SM SCT120 15/02 A2999 RMK AO2 LTG DSNT W
 
KGOK - Guthrie, Oklahoma, USA
Distance from station: SSW 44mi, 71km
Updated: Fri, 03-22-2019 10:53pm CDT
Clear
Clear
 Wind from ESE
Wind: ESE 10 mph , 17 km/h
Temperature: 61°F , 16°C
Dew Point: 34°F , 1°C
Humidity: 36%
Barometer: 1016.6 hPa
Clouds: Clear
Visibility: 10 miles , 16 km
2019/03/23 03:53 KGOK 230353Z AUTO 12009KT 10SM CLR 16/01 A3002 RMK AO2 SLP163 T01560011
KOUN - Norman/Westheime, Oklahoma, USA
Distance from station: SSW 84mi, 136km
Updated: Fri, 03-22-2019 11:15pm CDT
Overcast
Overcast
 Wind from ESE
Wind: ESE 15 mph , 24 km/h
Temperature: 61°F , 16°C
Dew Point: 37°F , 3°C
Humidity: 42%
Barometer: 1015.9 hPa
Clouds: Overcast
Visibility: 10 miles , 16 km
Cloud details: Overcast 7500 ft
2019/03/23 04:15 KOUN 230415Z AUTO 12013KT 10SM OVC075 16/03 A3000 RMK AO2 T01640033
KOKC - Oklahoma City, Oklahoma, USA
Distance from station: SSW 78mi, 126km
Updated: Fri, 03-22-2019 10:52pm CDT
Mostly cloudy
Mostly cloudy
 Wind from SE
Wind: SE 20 mph , 31 km/h
Temperature: 63°F , 17°C
Dew Point: 37°F , 3°C
Humidity: 39%
Barometer: 1016.3 hPa
Clouds: Mostly cloudy
Visibility: 10 miles , 16 km
Cloud details: Mostly cloudy 7500 ft
Mostly cloudy 15000 ft
2019/03/23 03:52 KOKC 230352Z 13017KT 10SM BKN075 BKN150 17/03 A3001 RMK AO2 SLP156 T01670028
 
KPWA - Okla City/Wiley, Oklahoma, USA
Distance from station: SSW 70mi, 113km
Updated: Fri, 03-22-2019 10:53pm CDT
Overcast
Overcast
 Wind from SE
Wind: SE 16 mph , 26 km/h, Gust: 24 mph , 39 km/h
Temperature: 64°F , 18°C
Dew Point: 36°F , 2°C
Humidity: 34%
Barometer: 1016.3 hPa
Clouds: Overcast
Visibility: 10 miles , 16 km
Cloud details: Overcast 7000 ft
2019/03/23 03:53 KPWA 230353Z AUTO 13014G21KT 10SM OVC070 18/02 A3001 RMK AO2 SLP155 T01780022
KRCE - Okla City/Page, Oklahoma, USA
Distance from station: SW 78mi, 126km
Updated: Fri, 03-22-2019 11:15pm CDT
Overcast
Overcast
 Wind from SE
Wind: SE 17 mph , 28 km/h
Temperature: 63°F , 17°C
Dew Point: 37°F , 3°C
Humidity: 39%
Barometer: 1015.9 hPa
Clouds: Overcast
Visibility: 10 miles , 16 km
Cloud details: Few Clouds 6000 ft
Overcast 7500 ft
2019/03/23 04:15 KRCE 230415Z AUTO 14015KT 10SM FEW060 OVC075 17/03 A3000 RMK AO2
KOKM - Okmulgee, Oklahoma, USA
Distance from station: SE 79mi, 127km
Updated: Fri, 03-22-2019 11:15pm CDT
Clear
Clear
 Wind from ENE
Wind: ENE 3 mph , 6 km/h
Temperature: 54°F , 12°C
Dew Point: 36°F , 2°C
Humidity: 51%
Barometer: 1018.6 hPa
Clouds: Clear
Visibility: 10 miles , 16 km
2019/03/23 04:15 KOKM 230415Z AUTO 07003KT 10SM CLR 12/02 A3008 RMK AO2 T01150022
 
KPNC - Ponca City, Oklahoma, USA
Distance from station: N 22mi, 36km
Updated: Fri, 03-22-2019 10:53pm CDT
Mostly cloudy
Mostly cloudy
 Wind from SE
Wind: SE 13 mph , 20 km/h
Temperature: 59°F , 15°C
Dew Point: 30°F , -1°C
Humidity: 34%
Barometer: 1017.3 hPa
Clouds: Mostly cloudy
Visibility: 10 miles , 16 km
Cloud details: Mostly cloudy 10000 ft
2019/03/23 03:53 KPNC 230353Z AUTO 13011KT 10SM BKN100 15/M01 A3004 RMK AO2 SLP169 T01501011
KSNL - Shawnee, Oklahoma, USA
Distance from station: S 74mi, 119km
Updated: Fri, 03-22-2019 11:15pm CDT
Clear
Clear
 Wind from SE
Wind: SE 9 mph , 15 km/h
Temperature: 59°F , 15°C
Dew Point: 36°F , 2°C
Humidity: 42%
Barometer: 1017.6 hPa
Clouds: Clear
Visibility: 10 miles , 16 km
2019/03/23 04:15 KSNL 230415Z AUTO 13008KT 10SM CLR 15/02 A3005 RMK AO2 T01480017
KSWO - Stillwater, Oklahoma, USA
Distance from station: S 17mi, 28km
Updated: Fri, 03-22-2019 10:53pm CDT
Mostly cloudy
Mostly cloudy
 Wind from ESE
Wind: ESE 9 mph , 15 km/h
Temperature: 61°F , 16°C
Dew Point: 30°F , -1°C
Humidity: 31%
Barometer: 1017.3 hPa
Clouds: Mostly cloudy
Visibility: 10 miles , 16 km
Cloud details: Mostly cloudy 11000 ft
2019/03/23 03:53 KSWO 230353Z AUTO 11008KT 10SM BKN110 16/M01 A3004 RMK AO2 SLP166 T01611006
 
KTIK - Tinker Afb, Oklahoma, USA
Distance from station: SSW 72mi, 115km
Updated: Fri, 03-22-2019 10:56pm CDT
Mostly cloudy
Mostly cloudy
 Wind from SE
Wind: SE 10 mph , 17 km/h
Temperature: 61°F , 16°C
Dew Point: 36°F , 2°C
Humidity: 39%
Barometer: 1016.6 hPa
Clouds: Mostly cloudy
Visibility: 10 miles , 16 km
Cloud details: Few Clouds 7500 ft
Mostly cloudy 14000 ft
2019/03/23 03:56 KTIK 230356Z AUTO 13009KT 10SM FEW075 BKN140 16/02 A3002 RMK AO2 SLP167 T01630019
KTUL - Tulsa, Oklahoma, USA
Distance from station: ESE 65mi, 105km
Updated: Fri, 03-22-2019 10:53pm CDT
Overcast
Overcast
 Wind from SE
Wind: SE 5 mph , 7 km/h
Temperature: 57°F , 14°C
Dew Point: 32°F , 0°C
Humidity: 39%
Barometer: 1019 hPa
Clouds: Overcast
Visibility: 10 miles , 16 km
Cloud details: Mostly cloudy 14000 ft
Overcast 25000 ft
2019/03/23 03:53 KTUL 230353Z 13004KT 10SM BKN140 OVC250 14/00 A3009 RMK AO2 SLP187 VIRGA SW T01390000